sensor_id;sensor_type;location;lat;lon;timestamp;P1;durP1;ratioP1;P2;durP2;ratioP2
60700;SDS011;46541;49.894;10.886;2023-07-20T00:02:25;5.97;;;3.13;;
60700;SDS011;46541;49.894;10.886;2023-07-20T00:04:52;4.93;;;2.80;;
60700;SDS011;46541;49.894;10.886;2023-07-20T00:07:19;5.15;;;2.92;;
60700;SDS011;46541;49.894;10.886;2023-07-20T00:09:45;8.35;;;3.10;;
60700;SDS011;46541;49.894;10.886;2023-07-20T00:12:12;4.97;;;3.10;;
60700;SDS011;46541;49.894;10.886;2023-07-20T00:14:39;4.45;;;3.17;;
60700;SDS011;46541;49.894;10.886;2023-07-20T00:17:06;6.82;;;3.35;;
60700;SDS011;46541;49.894;10.886;2023-07-20T00:19:33;4.05;;;2.83;;
60700;SDS011;46541;49.894;10.886;2023-07-20T00:22:01;4.65;;;2.72;;
60700;SDS011;46541;49.894;10.886;2023-07-20T00:24:28;5.40;;;2.92;;
60700;SDS011;46541;49.894;10.886;2023-07-20T00:26:54;5.75;;;3.42;;
60700;SDS011;46541;49.894;10.886;2023-07-20T00:29:21;6.55;;;3.00;;
60700;SDS011;46541;49.894;10.886;2023-07-20T00:31:48;4.90;;;3.30;;
60700;SDS011;46541;49.894;10.886;2023-07-20T00:34:17;4.47;;;3.40;;
60700;SDS011;46541;49.894;10.886;2023-07-20T00:36:44;6.38;;;3.50;;
60700;SDS011;46541;49.894;10.886;2023-07-20T00:39:10;4.65;;;3.30;;
60700;SDS011;46541;49.894;10.886;2023-07-20T00:41:37;4.72;;;2.92;;
60700;SDS011;46541;49.894;10.886;2023-07-20T00:44:04;4.65;;;3.13;;
60700;SDS011;46541;49.894;10.886;2023-07-20T00:46:31;4.32;;;3.20;;
60700;SDS011;46541;49.894;10.886;2023-07-20T00:48:59;4.80;;;3.33;;
60700;SDS011;46541;49.894;10.886;2023-07-20T00:51:27;7.53;;;3.22;;
60700;SDS011;46541;49.894;10.886;2023-07-20T00:53:54;5.97;;;3.45;;
60700;SDS011;46541;49.894;10.886;2023-07-20T00:56:21;9.77;;;3.88;;
60700;SDS011;46541;49.894;10.886;2023-07-20T00:58:49;6.60;;;3.08;;
60700;SDS011;46541;49.894;10.886;2023-07-20T01:01:16;4.30;;;3.28;;
60700;SDS011;46541;49.894;10.886;2023-07-20T01:03:43;4.30;;;2.88;;
60700;SDS011;46541;49.894;10.886;2023-07-20T01:08:42;4.20;;;3.00;;
60700;SDS011;46541;49.894;10.886;2023-07-20T01:11:21;5.32;;;3.40;;
60700;SDS011;46541;49.894;10.886;2023-07-20T01:13:55;5.95;;;3.28;;
60700;SDS011;46541;49.894;10.886;2023-07-20T01:16:22;6.32;;;3.35;;
60700;SDS011;46541;49.894;10.886;2023-07-20T01:18:49;7.50;;;2.78;;
60700;SDS011;46541;49.894;10.886;2023-07-20T01:21:21;5.50;;;3.20;;
60700;SDS011;46541;49.894;10.886;2023-07-20T01:32:42;5.82;;;3.25;;
60700;SDS011;46541;49.894;10.886;2023-07-20T01:35:10;5.47;;;3.20;;
60700;SDS011;46541;49.894;10.886;2023-07-20T01:37:43;6.18;;;3.47;;
60700;SDS011;46541;49.894;10.886;2023-07-20T01:40:13;4.72;;;2.95;;
60700;SDS011;46541;49.894;10.886;2023-07-20T01:42:45;5.18;;;3.13;;
60700;SDS011;46541;49.894;10.886;2023-07-20T01:45:13;3.85;;;2.95;;
60700;SDS011;46541;49.894;10.886;2023-07-20T01:47:40;5.10;;;3.58;;
60700;SDS011;46541;49.894;10.886;2023-07-20T01:50:07;4.80;;;3.90;;
60700;SDS011;46541;49.894;10.886;2023-07-20T01:52:36;6.60;;;3.58;;
60700;SDS011;46541;49.894;10.886;2023-07-20T01:55:03;5.25;;;3.53;;
60700;SDS011;46541;49.894;10.886;2023-07-20T01:57:30;6.85;;;3.67;;
60700;SDS011;46541;49.894;10.886;2023-07-20T01:59:58;6.47;;;3.83;;
60700;SDS011;46541;49.894;10.886;2023-07-20T02:02:26;4.38;;;3.28;;
60700;SDS011;46541;49.894;10.886;2023-07-20T02:04:54;6.03;;;3.78;;
60700;SDS011;46541;49.894;10.886;2023-07-20T02:07:21;5.70;;;3.60;;
60700;SDS011;46541;49.894;10.886;2023-07-20T02:09:48;4.22;;;3.35;;
60700;SDS011;46541;49.894;10.886;2023-07-20T02:12:14;5.20;;;3.25;;
60700;SDS011;46541;49.894;10.886;2023-07-20T02:14:41;5.03;;;3.10;;
60700;SDS011;46541;49.894;10.886;2023-07-20T02:17:08;7.15;;;4.05;;
60700;SDS011;46541;49.894;10.886;2023-07-20T02:19:37;5.50;;;3.45;;
60700;SDS011;46541;49.894;10.886;2023-07-20T02:22:04;7.15;;;4.18;;
60700;SDS011;46541;49.894;10.886;2023-07-20T02:24:32;6.60;;;3.97;;
60700;SDS011;46541;49.894;10.886;2023-07-20T02:26:59;5.32;;;3.72;;
60700;SDS011;46541;49.894;10.886;2023-07-20T02:29:26;5.65;;;3.55;;
60700;SDS011;46541;49.894;10.886;2023-07-20T02:31:52;6.75;;;3.53;;
60700;SDS011;46541;49.894;10.886;2023-07-20T02:34:19;7.10;;;3.65;;
60700;SDS011;46541;49.894;10.886;2023-07-20T02:36:46;5.95;;;4.10;;
60700;SDS011;46541;49.894;10.886;2023-07-20T02:39:14;6.20;;;3.83;;
60700;SDS011;46541;49.894;10.886;2023-07-20T02:41:41;9.32;;;3.38;;
60700;SDS011;46541;49.894;10.886;2023-07-20T02:44:07;9.30;;;4.97;;
60700;SDS011;46541;49.894;10.886;2023-07-20T02:46:34;8.00;;;3.83;;
60700;SDS011;46541;49.894;10.886;2023-07-20T02:49:01;6.55;;;3.58;;
60700;SDS011;46541;49.894;10.886;2023-07-20T02:51:28;8.65;;;3.35;;
60700;SDS011;46541;49.894;10.886;2023-07-20T02:53:55;4.18;;;3.33;;
60700;SDS011;46541;49.894;10.886;2023-07-20T02:56:21;7.20;;;3.63;;
60700;SDS011;46541;49.894;10.886;2023-07-20T02:58:49;4.38;;;3.22;;
60700;SDS011;46541;49.894;10.886;2023-07-20T03:01:16;3.60;;;3.10;;
60700;SDS011;46541;49.894;10.886;2023-07-20T03:03:43;4.53;;;2.75;;
60700;SDS011;46541;49.894;10.886;2023-07-20T03:06:13;6.47;;;3.38;;
60700;SDS011;46541;49.894;10.886;2023-07-20T03:08:41;4.63;;;3.25;;
60700;SDS011;46541;49.894;10.886;2023-07-20T03:11:13;4.90;;;3.22;;
60700;SDS011;46541;49.894;10.886;2023-07-20T03:13:41;5.15;;;3.80;;
60700;SDS011;46541;49.894;10.886;2023-07-20T03:16:09;5.20;;;3.40;;
60700;SDS011;46541;49.894;10.886;2023-07-20T03:18:38;7.07;;;3.35;;
60700;SDS011;46541;49.894;10.886;2023-07-20T03:21:06;5.13;;;2.90;;
60700;SDS011;46541;49.894;10.886;2023-07-20T03:23:35;4.82;;;2.97;;
60700;SDS011;46541;49.894;10.886;2023-07-20T03:26:02;6.22;;;2.65;;
60700;SDS011;46541;49.894;10.886;2023-07-20T03:28:29;4.20;;;2.67;;
60700;SDS011;46541;49.894;10.886;2023-07-20T03:30:56;5.18;;;2.90;;
60700;SDS011;46541;49.894;10.886;2023-07-20T03:33:25;8.30;;;3.20;;
60700;SDS011;46541;49.894;10.886;2023-07-20T03:35:52;5.93;;;2.80;;
60700;SDS011;46541;49.894;10.886;2023-07-20T03:38:19;9.75;;;3.25;;
60700;SDS011;46541;49.894;10.886;2023-07-20T03:41:20;5.95;;;3.03;;
60700;SDS011;46541;49.894;10.886;2023-07-20T03:43:40;3.78;;;2.92;;
60700;SDS011;46541;49.894;10.886;2023-07-20T03:46:07;5.70;;;2.90;;
60700;SDS011;46541;49.894;10.886;2023-07-20T03:48:34;5.88;;;2.83;;
60700;SDS011;46541;49.894;10.886;2023-07-20T03:51:02;4.40;;;2.90;;
60700;SDS011;46541;49.894;10.886;2023-07-20T03:53:29;4.63;;;2.53;;
60700;SDS011;46541;49.894;10.886;2023-07-20T03:55:55;4.50;;;2.83;;
60700;SDS011;46541;49.894;10.886;2023-07-20T03:58:22;7.03;;;3.60;;
60700;SDS011;46541;49.894;10.886;2023-07-20T04:00:49;5.60;;;2.65;;
60700;SDS011;46541;49.894;10.886;2023-07-20T04:03:17;6.75;;;3.00;;
60700;SDS011;46541;49.894;10.886;2023-07-20T04:05:45;6.93;;;3.75;;
60700;SDS011;46541;49.894;10.886;2023-07-20T04:08:12;14.60;;;4.43;;
60700;SDS011;46541;49.894;10.886;2023-07-20T04:10:39;14.65;;;6.03;;
60700;SDS011;46541;49.894;10.886;2023-07-20T04:13:09;6.85;;;4.20;;
60700;SDS011;46541;49.894;10.886;2023-07-20T04:15:36;4.95;;;2.75;;
60700;SDS011;46541;49.894;10.886;2023-07-20T04:18:02;5.80;;;2.95;;
60700;SDS011;46541;49.894;10.886;2023-07-20T04:20:29;6.32;;;3.15;;
60700;SDS011;46541;49.894;10.886;2023-07-20T04:22:56;8.18;;;3.45;;
60700;SDS011;46541;49.894;10.886;2023-07-20T04:25:23;8.20;;;3.95;;
60700;SDS011;46541;49.894;10.886;2023-07-20T04:27:49;6.20;;;2.75;;
60700;SDS011;46541;49.894;10.886;2023-07-20T04:30:18;5.75;;;2.63;;
60700;SDS011;46541;49.894;10.886;2023-07-20T04:32:48;4.15;;;2.38;;
60700;SDS011;46541;49.894;10.886;2023-07-20T04:35:44;5.78;;;3.10;;
60700;SDS011;46541;49.894;10.886;2023-07-20T04:38:18;6.85;;;3.28;;
60700;SDS011;46541;49.894;10.886;2023-07-20T04:40:47;11.63;;;7.30;;
60700;SDS011;46541;49.894;10.886;2023-07-20T04:43:15;8.30;;;3.80;;
60700;SDS011;46541;49.894;10.886;2023-07-20T04:45:43;7.13;;;3.10;;
60700;SDS011;46541;49.894;10.886;2023-07-20T04:48:10;8.05;;;2.60;;
60700;SDS011;46541;49.894;10.886;2023-07-20T04:50:38;6.50;;;2.60;;
60700;SDS011;46541;49.894;10.886;2023-07-20T04:53:08;6.13;;;2.65;;
60700;SDS011;46541;49.894;10.886;2023-07-20T04:55:36;4.03;;;2.38;;
60700;SDS011;46541;49.894;10.886;2023-07-20T04:58:06;5.38;;;3.33;;
60700;SDS011;46541;49.894;10.886;2023-07-20T05:00:33;4.90;;;2.90;;
60700;SDS011;46541;49.894;10.886;2023-07-20T05:03:00;8.05;;;4.20;;
60700;SDS011;46541;49.894;10.886;2023-07-20T05:05:28;6.35;;;2.75;;
60700;SDS011;46541;49.894;10.886;2023-07-20T05:07:54;5.18;;;2.83;;
60700;SDS011;46541;49.894;10.886;2023-07-20T05:10:21;9.32;;;5.03;;
60700;SDS011;46541;49.894;10.886;2023-07-20T05:12:49;7.22;;;3.00;;
60700;SDS011;46541;49.894;10.886;2023-07-20T05:15:16;9.60;;;4.07;;
60700;SDS011;46541;49.894;10.886;2023-07-20T05:17:43;2.53;;;1.90;;
60700;SDS011;46541;49.894;10.886;2023-07-20T05:20:10;8.10;;;3.55;;
60700;SDS011;46541;49.894;10.886;2023-07-20T05:22:38;6.00;;;2.65;;
60700;SDS011;46541;49.894;10.886;2023-07-20T05:25:06;4.07;;;2.22;;
60700;SDS011;46541;49.894;10.886;2023-07-20T05:27:37;3.58;;;2.35;;
60700;SDS011;46541;49.894;10.886;2023-07-20T05:30:05;2.47;;;2.20;;
60700;SDS011;46541;49.894;10.886;2023-07-20T05:32:33;7.20;;;2.95;;
60700;SDS011;46541;49.894;10.886;2023-07-20T05:35:00;5.35;;;3.40;;
60700;SDS011;46541;49.894;10.886;2023-07-20T05:37:27;6.13;;;2.85;;
60700;SDS011;46541;49.894;10.886;2023-07-20T05:39:54;7.50;;;2.92;;
60700;SDS011;46541;49.894;10.886;2023-07-20T05:42:21;7.70;;;2.35;;
60700;SDS011;46541;49.894;10.886;2023-07-20T05:44:48;5.90;;;2.78;;
60700;SDS011;46541;49.894;10.886;2023-07-20T05:47:16;6.63;;;3.58;;
60700;SDS011;46541;49.894;10.886;2023-07-20T05:49:42;4.93;;;2.88;;
60700;SDS011;46541;49.894;10.886;2023-07-20T05:52:09;4.68;;;3.15;;
60700;SDS011;46541;49.894;10.886;2023-07-20T05:54:36;5.63;;;2.92;;
60700;SDS011;46541;49.894;10.886;2023-07-20T05:57:02;8.27;;;2.80;;
60700;SDS011;46541;49.894;10.886;2023-07-20T05:59:29;4.50;;;2.38;;
60700;SDS011;46541;49.894;10.886;2023-07-20T06:01:56;10.32;;;3.00;;
60700;SDS011;46541;49.894;10.886;2023-07-20T06:04:23;4.78;;;2.75;;
60700;SDS011;46541;49.894;10.886;2023-07-20T06:06:50;5.53;;;2.90;;
60700;SDS011;46541;49.894;10.886;2023-07-20T06:09:17;4.10;;;2.65;;
60700;SDS011;46541;49.894;10.886;2023-07-20T06:11:44;4.38;;;2.38;;
60700;SDS011;46541;49.894;10.886;2023-07-20T06:14:10;4.60;;;2.35;;
60700;SDS011;46541;49.894;10.886;2023-07-20T06:16:37;3.47;;;2.33;;
60700;SDS011;46541;49.894;10.886;2023-07-20T06:19:04;4.28;;;2.08;;
60700;SDS011;46541;49.894;10.886;2023-07-20T06:21:31;5.50;;;2.67;;
60700;SDS011;46541;49.894;10.886;2023-07-20T06:23:57;5.03;;;2.50;;
60700;SDS011;46541;49.894;10.886;2023-07-20T06:26:25;3.70;;;2.40;;
60700;SDS011;46541;49.894;10.886;2023-07-20T06:28:52;4.93;;;2.10;;
60700;SDS011;46541;49.894;10.886;2023-07-20T06:31:18;12.38;;;3.40;;
60700;SDS011;46541;49.894;10.886;2023-07-20T06:33:45;4.53;;;2.63;;
60700;SDS011;46541;49.894;10.886;2023-07-20T06:36:17;7.57;;;2.38;;
60700;SDS011;46541;49.894;10.886;2023-07-20T06:38:44;7.35;;;2.50;;
60700;SDS011;46541;49.894;10.886;2023-07-20T06:41:31;3.75;;;2.58;;
60700;SDS011;46541;49.894;10.886;2023-07-20T06:44:00;5.28;;;2.28;;
60700;SDS011;46541;49.894;10.886;2023-07-20T06:46:27;3.55;;;2.47;;
60700;SDS011;46541;49.894;10.886;2023-07-20T06:48:54;3.97;;;2.20;;
60700;SDS011;46541;49.894;10.886;2023-07-20T06:51:24;3.22;;;2.10;;
60700;SDS011;46541;49.894;10.886;2023-07-20T06:53:51;2.88;;;1.90;;
60700;SDS011;46541;49.894;10.886;2023-07-20T06:56:18;2.53;;;1.63;;
60700;SDS011;46541;49.894;10.886;2023-07-20T06:58:48;2.67;;;1.60;;
60700;SDS011;46541;49.894;10.886;2023-07-20T07:01:15;2.28;;;1.77;;
60700;SDS011;46541;49.894;10.886;2023-07-20T07:03:43;3.50;;;2.30;;
60700;SDS011;46541;49.894;10.886;2023-07-20T07:06:10;4.60;;;1.90;;
60700;SDS011;46541;49.894;10.886;2023-07-20T07:08:37;4.00;;;1.67;;
60700;SDS011;46541;49.894;10.886;2023-07-20T07:11:04;3.08;;;2.17;;
60700;SDS011;46541;49.894;10.886;2023-07-20T07:13:31;8.20;;;1.95;;
60700;SDS011;46541;49.894;10.886;2023-07-20T07:15:58;3.38;;;1.90;;
60700;SDS011;46541;49.894;10.886;2023-07-20T07:18:25;3.53;;;1.90;;
60700;SDS011;46541;49.894;10.886;2023-07-20T07:20:53;8.85;;;2.30;;
60700;SDS011;46541;49.894;10.886;2023-07-20T07:23:20;4.07;;;1.85;;
60700;SDS011;46541;49.894;10.886;2023-07-20T07:25:47;6.13;;;2.30;;
60700;SDS011;46541;49.894;10.886;2023-07-20T07:28:14;6.45;;;2.08;;
60700;SDS011;46541;49.894;10.886;2023-07-20T07:30:41;3.78;;;1.80;;
60700;SDS011;46541;49.894;10.886;2023-07-20T07:33:08;3.30;;;1.60;;
60700;SDS011;46541;49.894;10.886;2023-07-20T07:35:36;3.85;;;1.90;;
60700;SDS011;46541;49.894;10.886;2023-07-20T07:38:03;3.97;;;1.70;;
60700;SDS011;46541;49.894;10.886;2023-07-20T07:40:49;4.82;;;1.83;;
60700;SDS011;46541;49.894;10.886;2023-07-20T07:43:16;8.98;;;1.50;;
60700;SDS011;46541;49.894;10.886;2023-07-20T07:45:43;4.72;;;2.67;;
60700;SDS011;46541;49.894;10.886;2023-07-20T07:48:10;2.33;;;1.60;;
60700;SDS011;46541;49.894;10.886;2023-07-20T07:50:38;2.28;;;1.63;;
60700;SDS011;46541;49.894;10.886;2023-07-20T07:53:07;3.55;;;1.55;;
60700;SDS011;46541;49.894;10.886;2023-07-20T07:55:35;3.38;;;1.58;;
60700;SDS011;46541;49.894;10.886;2023-07-20T07:58:02;2.35;;;1.52;;
60700;SDS011;46541;49.894;10.886;2023-07-20T08:00:28;2.88;;;1.33;;
60700;SDS011;46541;49.894;10.886;2023-07-20T08:02:55;2.28;;;1.50;;
60700;SDS011;46541;49.894;10.886;2023-07-20T08:05:22;4.07;;;1.52;;
60700;SDS011;46541;49.894;10.886;2023-07-20T08:07:49;5.35;;;1.73;;
60700;SDS011;46541;49.894;10.886;2023-07-20T08:10:16;4.35;;;1.77;;
60700;SDS011;46541;49.894;10.886;2023-07-20T08:12:42;2.47;;;1.40;;
60700;SDS011;46541;49.894;10.886;2023-07-20T08:15:10;2.17;;;1.40;;
60700;SDS011;46541;49.894;10.886;2023-07-20T08:17:41;3.90;;;1.40;;
60700;SDS011;46541;49.894;10.886;2023-07-20T08:20:08;2.85;;;1.48;;
60700;SDS011;46541;49.894;10.886;2023-07-20T08:22:38;3.67;;;1.60;;
60700;SDS011;46541;49.894;10.886;2023-07-20T08:25:08;4.57;;;1.58;;
60700;SDS011;46541;49.894;10.886;2023-07-20T08:27:36;2.42;;;1.20;;
60700;SDS011;46541;49.894;10.886;2023-07-20T08:30:03;3.85;;;1.48;;
60700;SDS011;46541;49.894;10.886;2023-07-20T08:32:30;2.67;;;1.67;;
60700;SDS011;46541;49.894;10.886;2023-07-20T08:34:59;2.67;;;1.30;;
60700;SDS011;46541;49.894;10.886;2023-07-20T08:37:25;4.55;;;1.60;;
60700;SDS011;46541;49.894;10.886;2023-07-20T08:39:52;2.70;;;1.48;;
60700;SDS011;46541;49.894;10.886;2023-07-20T08:42:19;2.47;;;1.35;;
60700;SDS011;46541;49.894;10.886;2023-07-20T08:44:48;2.70;;;1.40;;
60700;SDS011;46541;49.894;10.886;2023-07-20T08:47:16;3.90;;;1.52;;
60700;SDS011;46541;49.894;10.886;2023-07-20T08:49:43;5.30;;;1.55;;
60700;SDS011;46541;49.894;10.886;2023-07-20T08:52:12;3.28;;;1.70;;
60700;SDS011;46541;49.894;10.886;2023-07-20T08:54:39;2.88;;;1.60;;
60700;SDS011;46541;49.894;10.886;2023-07-20T08:57:06;2.20;;;1.65;;
60700;SDS011;46541;49.894;10.886;2023-07-20T08:59:34;3.58;;;1.63;;
60700;SDS011;46541;49.894;10.886;2023-07-20T09:02:03;1.80;;;1.20;;
60700;SDS011;46541;49.894;10.886;2023-07-20T09:04:31;2.60;;;1.30;;
60700;SDS011;46541;49.894;10.886;2023-07-20T09:06:58;4.10;;;1.38;;
60700;SDS011;46541;49.894;10.886;2023-07-20T09:09:25;3.42;;;1.60;;
60700;SDS011;46541;49.894;10.886;2023-07-20T09:11:52;4.28;;;1.92;;
60700;SDS011;46541;49.894;10.886;2023-07-20T09:14:19;3.17;;;1.50;;
60700;SDS011;46541;49.894;10.886;2023-07-20T09:16:49;2.95;;;1.48;;
60700;SDS011;46541;49.894;10.886;2023-07-20T09:19:18;2.55;;;1.60;;
60700;SDS011;46541;49.894;10.886;2023-07-20T09:21:46;4.65;;;1.50;;
60700;SDS011;46541;49.894;10.886;2023-07-20T09:24:14;5.07;;;2.08;;
60700;SDS011;46541;49.894;10.886;2023-07-20T09:26:43;4.72;;;1.80;;
60700;SDS011;46541;49.894;10.886;2023-07-20T09:29:10;5.82;;;2.00;;
60700;SDS011;46541;49.894;10.886;2023-07-20T09:31:37;2.92;;;1.80;;
60700;SDS011;46541;49.894;10.886;2023-07-20T09:34:07;4.97;;;2.00;;
60700;SDS011;46541;49.894;10.886;2023-07-20T09:36:35;4.68;;;2.00;;
60700;SDS011;46541;49.894;10.886;2023-07-20T09:39:05;4.22;;;2.25;;
60700;SDS011;46541;49.894;10.886;2023-07-20T09:41:41;4.03;;;2.25;;
60700;SDS011;46541;49.894;10.886;2023-07-20T09:44:11;2.83;;;1.75;;
60700;SDS011;46541;49.894;10.886;2023-07-20T09:46:46;4.53;;;2.10;;
60700;SDS011;46541;49.894;10.886;2023-07-20T09:49:20;5.65;;;2.80;;
60700;SDS011;46541;49.894;10.886;2023-07-20T09:51:49;8.15;;;3.20;;
60700;SDS011;46541;49.894;10.886;2023-07-20T09:54:18;7.35;;;2.70;;
60700;SDS011;46541;49.894;10.886;2023-07-20T09:56:48;8.27;;;2.45;;
60700;SDS011;46541;49.894;10.886;2023-07-20T09:59:16;4.25;;;2.47;;
60700;SDS011;46541;49.894;10.886;2023-07-20T10:01:43;7.90;;;2.13;;
60700;SDS011;46541;49.894;10.886;2023-07-20T10:04:12;5.50;;;2.47;;
60700;SDS011;46541;49.894;10.886;2023-07-20T10:06:42;5.75;;;2.17;;
60700;SDS011;46541;49.894;10.886;2023-07-20T10:09:10;3.53;;;1.83;;
60700;SDS011;46541;49.894;10.886;2023-07-20T10:11:39;4.47;;;1.80;;
60700;SDS011;46541;49.894;10.886;2023-07-20T10:14:09;3.80;;;2.25;;
60700;SDS011;46541;49.894;10.886;2023-07-20T10:16:41;6.03;;;1.90;;
60700;SDS011;46541;49.894;10.886;2023-07-20T10:19:22;2.90;;;1.73;;
60700;SDS011;46541;49.894;10.886;2023-07-20T10:22:14;3.75;;;1.77;;
60700;SDS011;46541;49.894;10.886;2023-07-20T10:24:44;4.40;;;2.33;;
60700;SDS011;46541;49.894;10.886;2023-07-20T10:27:12;3.22;;;1.42;;
60700;SDS011;46541;49.894;10.886;2023-07-20T10:29:40;3.50;;;1.77;;
60700;SDS011;46541;49.894;10.886;2023-07-20T10:32:08;3.47;;;1.60;;
60700;SDS011;46541;49.894;10.886;2023-07-20T10:34:36;3.33;;;1.80;;
60700;SDS011;46541;49.894;10.886;2023-07-20T10:37:03;7.28;;;1.55;;
60700;SDS011;46541;49.894;10.886;2023-07-20T10:39:33;6.40;;;1.77;;
60700;SDS011;46541;49.894;10.886;2023-07-20T10:44:34;3.60;;;1.58;;
60700;SDS011;46541;49.894;10.886;2023-07-20T10:47:07;7.93;;;1.63;;
60700;SDS011;46541;49.894;10.886;2023-07-20T10:52:41;4.15;;;1.95;;
60700;SDS011;46541;49.894;10.886;2023-07-20T10:55:15;4.32;;;1.45;;
60700;SDS011;46541;49.894;10.886;2023-07-20T10:57:42;2.65;;;1.60;;
60700;SDS011;46541;49.894;10.886;2023-07-20T11:00:11;6.88;;;2.30;;
60700;SDS011;46541;49.894;10.886;2023-07-20T11:08:10;3.95;;;1.83;;
60700;SDS011;46541;49.894;10.886;2023-07-20T11:10:38;6.28;;;2.63;;
60700;SDS011;46541;49.894;10.886;2023-07-20T11:13:18;5.55;;;2.03;;
60700;SDS011;46541;49.894;10.886;2023-07-20T11:18:26;3.30;;;1.60;;
60700;SDS011;46541;49.894;10.886;2023-07-20T11:20:53;5.70;;;1.67;;
60700;SDS011;46541;49.894;10.886;2023-07-20T11:23:20;5.32;;;2.03;;
60700;SDS011;46541;49.894;10.886;2023-07-20T11:25:48;2.42;;;1.42;;
60700;SDS011;46541;49.894;10.886;2023-07-20T11:28:16;5.00;;;1.45;;
60700;SDS011;46541;49.894;10.886;2023-07-20T11:30:42;5.82;;;1.90;;
60700;SDS011;46541;49.894;10.886;2023-07-20T11:33:10;3.85;;;1.75;;
60700;SDS011;46541;49.894;10.886;2023-07-20T11:35:43;5.80;;;1.60;;
60700;SDS011;46541;49.894;10.886;2023-07-20T11:38:12;2.92;;;1.23;;
60700;SDS011;46541;49.894;10.886;2023-07-20T11:40:45;5.05;;;2.72;;
60700;SDS011;46541;49.894;10.886;2023-07-20T11:43:13;3.55;;;1.80;;
60700;SDS011;46541;49.894;10.886;2023-07-20T11:45:43;3.78;;;2.08;;
60700;SDS011;46541;49.894;10.886;2023-07-20T11:48:18;4.88;;;2.08;;
60700;SDS011;46541;49.894;10.886;2023-07-20T11:50:45;3.90;;;1.35;;
60700;SDS011;46541;49.894;10.886;2023-07-20T11:53:11;6.32;;;1.75;;
60700;SDS011;46541;49.894;10.886;2023-07-20T11:55:42;4.82;;;1.88;;
60700;SDS011;46541;49.894;10.886;2023-07-20T11:58:09;2.80;;;1.67;;
60700;SDS011;46541;49.894;10.886;2023-07-20T12:00:37;4.72;;;1.50;;
60700;SDS011;46541;49.894;10.886;2023-07-20T12:03:06;4.95;;;2.33;;
60700;SDS011;46541;49.894;10.886;2023-07-20T12:05:33;4.45;;;2.05;;
60700;SDS011;46541;49.894;10.886;2023-07-20T12:08:20;3.55;;;1.73;;
60700;SDS011;46541;49.894;10.886;2023-07-20T12:10:48;5.03;;;1.73;;
60700;SDS011;46541;49.894;10.886;2023-07-20T12:13:15;2.15;;;1.45;;
60700;SDS011;46541;49.894;10.886;2023-07-20T12:15:42;7.57;;;2.60;;
60700;SDS011;46541;49.894;10.886;2023-07-20T12:18:09;5.65;;;2.28;;
60700;SDS011;46541;49.894;10.886;2023-07-20T12:20:37;3.08;;;2.03;;
60700;SDS011;46541;49.894;10.886;2023-07-20T12:23:08;6.45;;;2.55;;
60700;SDS011;46541;49.894;10.886;2023-07-20T12:25:40;5.80;;;2.20;;
60700;SDS011;46541;49.894;10.886;2023-07-20T12:28:09;5.80;;;1.50;;
60700;SDS011;46541;49.894;10.886;2023-07-20T12:30:37;6.90;;;1.88;;
60700;SDS011;46541;49.894;10.886;2023-07-20T12:33:05;2.08;;;1.55;;
60700;SDS011;46541;49.894;10.886;2023-07-20T12:35:32;2.63;;;1.67;;
60700;SDS011;46541;49.894;10.886;2023-07-20T12:37:59;3.95;;;1.50;;
60700;SDS011;46541;49.894;10.886;2023-07-20T12:40:26;6.43;;;1.30;;
60700;SDS011;46541;49.894;10.886;2023-07-20T12:42:53;6.03;;;1.85;;
60700;SDS011;46541;49.894;10.886;2023-07-20T12:45:20;4.32;;;1.83;;
60700;SDS011;46541;49.894;10.886;2023-07-20T12:47:48;2.67;;;1.45;;
60700;SDS011;46541;49.894;10.886;2023-07-20T12:50:15;10.15;;;2.70;;
60700;SDS011;46541;49.894;10.886;2023-07-20T12:52:42;12.40;;;2.70;;
60700;SDS011;46541;49.894;10.886;2023-07-20T12:55:09;6.82;;;1.50;;
60700;SDS011;46541;49.894;10.886;2023-07-20T12:57:36;5.28;;;1.50;;
60700;SDS011;46541;49.894;10.886;2023-07-20T13:00:04;4.65;;;1.45;;
60700;SDS011;46541;49.894;10.886;2023-07-20T13:02:34;1.77;;;1.35;;
60700;SDS011;46541;49.894;10.886;2023-07-20T13:05:01;5.18;;;1.73;;
60700;SDS011;46541;49.894;10.886;2023-07-20T13:07:33;2.70;;;1.55;;
60700;SDS011;46541;49.894;10.886;2023-07-20T13:10:05;5.05;;;1.80;;
60700;SDS011;46541;49.894;10.886;2023-07-20T13:12:33;4.75;;;1.73;;
60700;SDS011;46541;49.894;10.886;2023-07-20T13:15:02;3.85;;;1.58;;
60700;SDS011;46541;49.894;10.886;2023-07-20T13:17:32;2.58;;;1.42;;
60700;SDS011;46541;49.894;10.886;2023-07-20T13:20:03;2.15;;;1.42;;
60700;SDS011;46541;49.894;10.886;2023-07-20T13:22:34;2.80;;;1.20;;
60700;SDS011;46541;49.894;10.886;2023-07-20T13:25:01;1.75;;;1.40;;
60700;SDS011;46541;49.894;10.886;2023-07-20T13:27:28;3.88;;;1.48;;
60700;SDS011;46541;49.894;10.886;2023-07-20T13:29:58;2.17;;;1.52;;
60700;SDS011;46541;49.894;10.886;2023-07-20T13:32:26;2.55;;;1.30;;
60700;SDS011;46541;49.894;10.886;2023-07-20T13:34:56;3.47;;;1.73;;
60700;SDS011;46541;49.894;10.886;2023-07-20T13:37:23;3.97;;;1.75;;
60700;SDS011;46541;49.894;10.886;2023-07-20T13:39:50;4.70;;;1.42;;
60700;SDS011;46541;49.894;10.886;2023-07-20T13:42:17;3.40;;;1.33;;
60700;SDS011;46541;49.894;10.886;2023-07-20T13:44:45;4.75;;;2.10;;
60700;SDS011;46541;49.894;10.886;2023-07-20T13:47:12;3.88;;;1.92;;
60700;SDS011;46541;49.894;10.886;2023-07-20T13:49:42;1.95;;;1.10;;
60700;SDS011;46541;49.894;10.886;2023-07-20T13:52:13;2.75;;;1.42;;
60700;SDS011;46541;49.894;10.886;2023-07-20T13:54:43;4.20;;;1.60;;
60700;SDS011;46541;49.894;10.886;2023-07-20T13:57:13;3.95;;;1.92;;
60700;SDS011;46541;49.894;10.886;2023-07-20T13:59:41;6.72;;;1.73;;
60700;SDS011;46541;49.894;10.886;2023-07-20T14:02:08;4.57;;;1.40;;
60700;SDS011;46541;49.894;10.886;2023-07-20T14:04:38;3.03;;;1.88;;
60700;SDS011;46541;49.894;10.886;2023-07-20T14:07:05;7.38;;;2.42;;
60700;SDS011;46541;49.894;10.886;2023-07-20T14:09:32;5.43;;;2.40;;
60700;SDS011;46541;49.894;10.886;2023-07-20T14:11:59;3.85;;;1.48;;
60700;SDS011;46541;49.894;10.886;2023-07-20T14:14:29;3.05;;;1.85;;
60700;SDS011;46541;49.894;10.886;2023-07-20T14:16:55;4.32;;;1.77;;
60700;SDS011;46541;49.894;10.886;2023-07-20T14:19:22;4.80;;;1.50;;
60700;SDS011;46541;49.894;10.886;2023-07-20T14:21:49;3.97;;;1.92;;
60700;SDS011;46541;49.894;10.886;2023-07-20T14:24:16;12.57;;;4.22;;
60700;SDS011;46541;49.894;10.886;2023-07-20T14:26:44;5.40;;;2.90;;
60700;SDS011;46541;49.894;10.886;2023-07-20T14:29:13;11.25;;;5.55;;
60700;SDS011;46541;49.894;10.886;2023-07-20T14:31:40;6.70;;;3.17;;
60700;SDS011;46541;49.894;10.886;2023-07-20T14:34:08;4.60;;;1.52;;
60700;SDS011;46541;49.894;10.886;2023-07-20T14:36:35;2.05;;;1.40;;
60700;SDS011;46541;49.894;10.886;2023-07-20T14:39:02;2.15;;;1.20;;
60700;SDS011;46541;49.894;10.886;2023-07-20T14:41:29;3.60;;;1.20;;
60700;SDS011;46541;49.894;10.886;2023-07-20T14:43:55;3.28;;;1.00;;
60700;SDS011;46541;49.894;10.886;2023-07-20T14:46:23;2.40;;;1.20;;
60700;SDS011;46541;49.894;10.886;2023-07-20T14:48:51;3.72;;;1.10;;
60700;SDS011;46541;49.894;10.886;2023-07-20T14:51:18;2.55;;;1.20;;
60700;SDS011;46541;49.894;10.886;2023-07-20T14:53:46;1.38;;;1.08;;
60700;SDS011;46541;49.894;10.886;2023-07-20T14:56:12;2.17;;;1.08;;
60700;SDS011;46541;49.894;10.886;2023-07-20T14:58:39;1.38;;;1.20;;
60700;SDS011;46541;49.894;10.886;2023-07-20T15:01:06;2.28;;;1.40;;
60700;SDS011;46541;49.894;10.886;2023-07-20T15:03:33;3.30;;;2.20;;
60700;SDS011;46541;49.894;10.886;2023-07-20T15:06:00;4.47;;;1.98;;